Date,TemperatureHighF,TemperatureAvgF,TemperatureLowF,DewpointHighF,DewpointAvgF,DewpointLowF,HumidityHigh,HumidityAvg,HumidityLow,PressureMaxIn,PressureMinIn,WindSpeedMaxMPH,WindSpeedAvgMPH,GustSpeedMaxMPH,PrecipitationSumIn
2013-6-24,87.4,74.9,72.7,73.7,61.7,-99.9,96,74,57,29.94,29.91,3,-57,0,0.00
2013-6-25,90.3,77.8,67.1,76.8,72.0,66.8,99,84,56,29.93,29.79,6,2,0,0.72
2013-6-26,84.4,71.6,64.9,75.2,69.4,64.6,99,93,74,29.87,29.70,5,1,0,0.75
2013-6-27,90.7,77.6,67.1,74.2,70.3,66.8,99,81,56,29.82,29.74,4,2,0,0.00
2013-6-28,86.9,76.4,68.2,70.1,65.4,59.0,91,71,46,29.77,29.68,5,2,0,0.00
2013-6-29,79.3,67.5,62.1,69.9,65.2,61.8,99,93,73,29.79,29.68,3,1,0,1.18
2013-6-30,76.8,67.1,62.8,69.8,66.0,62.5,99,96,77,30.01,29.79,3,0,0,0.38
2013-7-1,73.4,67.4,63.9,67.2,64.7,62.5,98,91,80,30.06,29.98,3,1,0,0.04
2013-7-2,84.0,69.1,62.8,70.5,65.7,62.5,99,90,57,30.12,30.03,4,1,0,0.41
2013-7-3,81.3,70.6,62.2,68.8,65.3,61.9,99,85,63,30.20,30.10,5,1,0,0.00
2013-7-4,77.4,69.8,62.2,70.5,66.8,61.9,99,91,75,30.21,30.12,2,0,0,0.00
2013-7-5,83.1,72.8,64.8,70.3,67.7,64.5,99,85,64,30.18,30.09,3,0,0,0.00
2013-7-6,73.9,70.0,66.6,70.4,68.7,66.3,99,96,79,30.14,30.06,4,0,0,0.12
2013-7-7,90.3,73.0,62.4,73.5,67.3,62.1,99,84,54,30.13,30.02,4,1,0,0.00
2013-7-8,87.4,76.4,67.6,75.9,71.4,67.3,99,86,64,30.13,30.01,5,1,0,0.00
2013-7-9,90.1,80.4,75.0,78.5,75.2,72.5,94,85,68,30.05,29.94,5,2,0,0.00
2013-7-10,85.6,77.3,68.4,78.6,73.5,67.6,99,88,72,29.96,29.80,5,1,0,0.30
2013-7-11,85.1,72.3,63.5,71.3,62.1,57.5,99,73,44,30.02,29.92,4,1,0,0.01
2013-7-12,86.2,70.5,57.9,64.1,60.0,57.6,99,73,43,30.10,30.01,3,1,0,0.00
2013-7-13,88.5,72.5,61.5,73.4,64.9,59.7,98,79,47,30.10,30.03,4,0,0,0.17
2013-7-14,91.6,78.3,65.1,74.2,70.1,64.8,99,78,55,30.18,30.10,3,0,0,0.00
2013-7-15,93.2,80.4,71.1,75.3,72.3,70.3,99,79,50,30.27,30.18,4,1,0,0.00
2013-7-16,95.7,79.4,70.0,76.0,72.5,69.7,99,82,48,30.29,30.22,3,0,0,0.00
2013-7-17,97.5,86.9,72.9,76.5,73.3,71.3,99,66,47,30.28,30.11,3,1,0,0.00
2013-7-18,96.3,82.0,72.1,77.0,73.8,71.8,99,79,50,30.14,29.94,3,0,0,0.00
2013-7-19,91.4,81.9,74.8,78.2,75.3,73.6,99,82,59,29.97,29.79,7,2,0,0.00
2013-7-20,85.8,73.9,68.0,75.7,70.9,66.9,99,91,72,29.86,29.77,6,2,0,0.35
2013-7-21,84.2,74.4,64.6,74.3,70.3,64.3,99,88,71,29.90,29.80,2,0,0,0.00
2013-7-22,82.4,73.5,68.0,76.0,71.5,67.7,99,94,76,29.82,29.70,3,0,0,0.98
2013-7-23,91.2,76.1,67.8,79.6,71.0,61.1,99,86,60,29.82,29.67,5,2,0,0.00
2013-7-24,81.9,67.7,57.6,62.4,57.8,54.2,94,72,48,29.95,29.80,4,1,0,0.00
2013-7-25,85.3,67.9,53.4,59.1,56.0,53.1,99,70,39,30.04,29.95,3,1,0,0.00
2013-7-26,82.0,69.3,56.5,64.6,60.7,56.0,99,76,53,30.03,29.87,4,1,0,0.00
2013-7-27,78.3,69.3,60.6,66.1,60.8,53.2,99,76,55,29.89,29.79,5,2,0,0.69
2013-7-28,73.9,64.4,49.5,56.5,53.2,49.2,99,69,48,29.99,29.87,6,2,0,0.00
2013-7-29,82.2,65.4,54.3,60.5,56.9,53.6,99,77,48,30.12,29.98,4,1,0,0.00
2013-7-30,76.8,67.4,57.4,69.6,62.4,56.5,99,85,65,30.15,30.04,4,0,0,0.06
2013-7-31,77.5,69.6,63.9,72.0,67.6,63.6,99,94,82,30.04,29.86,4,1,0,0.16
2013-8-1,84.4,72.1,64.6,69.7,64.0,58.2,99,79,42,29.95,29.88,7,1,0,0.00
2013-8-2,84.2,70.1,57.6,68.7,63.6,57.3,99,81,56,29.95,29.87,6,1,0,0.00
2013-8-3,86.4,74.0,66.6,72.5,67.2,58.3,99,81,53,30.01,29.88,4,0,0,0.99
2013-8-4,83.1,69.3,55.8,61.6,57.8,54.2,98,69,42,30.11,30.01,3,0,0,0.00
2013-8-5,83.7,72.7,55.9,63.2,60.8,55.6,99,69,47,30.05,29.88,3,1,0,0.00
2013-8-6,81.7,73.6,66.9,73.5,67.9,62.1,99,83,73,29.89,29.82,3,0,0,0.00
2013-8-7,87.4,75.9,68.4,76.8,72.9,68.1,99,91,71,29.86,29.79,4,1,0,0.00
2013-8-8,87.1,76.9,70.7,77.7,73.8,70.4,99,91,69,29.88,29.81,5,1,0,0.22
2013-8-9,88.5,75.9,70.0,73.6,70.4,66.5,99,85,59,29.97,29.83,3,0,0,0.03
2013-8-10,88.7,76.7,68.0,70.3,67.8,64.6,99,76,46,30.04,29.95,3,0,0,0.00
2013-8-11,89.4,76.2,66.4,71.9,67.8,63.3,99,78,46,30.05,29.98,3,1,0,0.00
2013-8-12,85.1,77.3,63.9,71.1,68.6,63.6,99,76,56,29.99,29.82,4,1,0,0.00
2013-8-13,81.9,71.2,59.4,69.3,61.7,50.7,99,74,54,30.03,29.80,7,2,0,0.00
2013-8-14,76.8,62.5,51.8,53.2,51.3,49.6,95,69,44,30.14,30.03,5,1,0,0.00
2013-8-15,75.7,59.9,49.6,56.4,52.8,49.3,99,80,50,30.13,30.04,3,0,0,0.00
2013-8-16,80.2,65.6,53.8,60.5,56.3,52.8,99,75,48,30.11,30.04,3,0,0,0.00
2013-8-17,88.0,69.1,56.5,64.9,59.7,55.3,96,74,42,30.14,30.05,3,0,0,0.00
2013-8-18,87.6,71.3,58.6,66.5,61.1,58.3,99,74,42,30.13,30.03,5,0,0,0.00
2013-8-19,88.2,75.9,58.5,67.1,62.9,58.2,99,67,43,30.08,29.99,3,1,0,0.00
2013-8-20,90.1,76.4,62.1,70.5,66.4,61.8,99,74,48,30.11,30.00,3,1,0,0.00
2013-8-21,91.4,82.1,65.7,75.0,70.2,65.4,99,70,49,30.09,29.98,4,1,0,0.00
2013-8-22,87.8,76.1,66.2,74.2,69.8,65.9,99,82,58,30.04,29.94,5,1,0,0.00
2013-8-23,90.0,81.0,67.3,72.9,69.2,63.3,98,69,52,30.07,29.99,2,1,0,0.00
2013-8-24,92.7,79.1,59.5,67.3,60.3,52.2,99,56,30,30.21,30.08,3,0,0,0.00
2013-8-25,91.4,83.2,64.0,68.0,62.1,58.2,97,51,35,30.26,30.14,3,1,0,0.00
2013-8-26,90.3,82.1,65.1,76.4,72.1,64.8,99,73,56,30.17,30.01,4,2,0,0.00
2013-8-27,91.8,79.1,70.7,77.7,73.5,70.4,99,85,59,30.02,29.90,5,2,0,0.00
2013-8-28,96.1,82.9,73.2,77.0,74.2,72.3,99,77,54,29.91,29.83,5,3,0,0.00
2013-8-29,93.9,82.2,70.9,75.0,71.3,67.6,99,72,46,29.97,29.90,3,1,0,0.00
2013-8-30,95.5,81.4,65.8,75.1,71.2,65.5,99,74,49,29.91,29.75,4,1,0,0.00
2013-8-31,97.0,77.4,69.8,78.5,72.8,69.5,99,88,53,29.79,29.66,4,1,0,0.37
2013-9-1,85.5,74.3,66.2,75.5,70.9,65.9,99,90,70,29.76,29.68,4,1,0,0.00
2013-9-2,88.9,75.4,67.3,73.6,68.5,61.6,99,82,47,29.85,29.71,3,1,0,0.00
2013-9-3,81.7,67.6,55.4,61.7,56.7,53.0,93,71,43,30.01,29.85,4,1,0,0.00
2013-9-4,84.9,66.7,53.2,62.5,57.7,52.9,99,77,44,30.09,29.99,4,1,0,0.00
2013-9-5,88.2,70.9,60.3,66.0,62.3,58.8,99,78,43,30.13,30.06,3,0,0,0.00
2013-9-6,87.6,75.4,56.3,62.9,58.5,52.7,88,58,42,30.17,30.02,4,1,0,0.00
2013-9-7,88.7,75.1,59.7,70.4,64.8,58.0,96,72,48,30.01,29.89,5,1,0,0.00
2013-9-8,90.0,76.6,68.4,73.7,70.5,67.8,99,83,51,29.92,29.86,3,0,0,0.00
2013-9-9,94.1,83.1,66.2,73.9,71.9,65.9,99,71,51,29.94,29.86,5,2,0,0.00
2013-9-10,97.2,81.8,73.2,77.4,72.4,68.1,99,76,40,30.05,29.92,4,1,0,0.00
2013-9-11,95.7,80.5,69.6,75.5,69.7,65.7,99,74,40,30.08,29.96,5,1,0,0.00
2013-9-12,81.7,74.3,66.0,73.3,68.5,52.9,99,84,48,29.96,29.81,5,2,0,0.27
2013-9-13,73.2,61.6,52.5,55.9,48.9,44.8,91,65,38,30.04,29.91,7,2,0,0.00
2013-9-14,79.2,58.1,43.2,48.0,43.6,38.0,98,64,25,30.14,30.02,5,1,0,0.00
2013-9-15,78.8,62.4,45.5,57.2,49.7,43.5,98,67,38,30.08,29.96,5,1,0,0.00
2013-9-16,72.3,63.5,53.6,58.6,56.1,50.7,91,78,60,30.22,29.99,3,1,0,0.00
2013-9-17,79.3,61.3,48.0,55.8,51.8,47.7,99,76,39,30.27,30.09,4,1,0,0.00
2013-9-18,85.5,70.5,57.2,66.8,61.4,53.1,96,74,53,30.08,29.96,4,1,0,0.00
2013-9-19,83.7,71.1,64.4,74.6,68.5,64.1,99,92,71,30.04,29.85,4,1,0,2.00
2013-9-20,79.7,72.1,66.6,72.7,69.9,66.3,99,93,76,29.85,29.73,5,2,0,0.45
2013-9-21,76.3,63.4,53.6,66.3,54.6,47.7,99,78,39,29.84,29.70,5,2,0,0.20
2013-9-22,75.4,58.0,46.2,54.1,49.7,45.7,99,77,43,29.96,29.84,3,0,0,0.00
2013-9-23,76.8,55.6,44.1,51.0,47.4,43.8,99,78,38,30.05,29.94,3,1,0,0.00
2013-9-24,82.9,60.7,45.7,60.9,52.9,45.4,99,79,45,30.01,29.81,6,1,0,0.00
2013-9-25,84.0,66.6,55.4,63.7,56.4,50.3,94,73,42,29.84,29.78,2,0,0,0.00
2013-9-26,84.6,62.3,48.7,57.9,53.0,48.4,99,76,34,30.00,29.85,3,0,0,0.00
2013-9-27,86.7,64.4,50.0,58.9,53.7,49.7,99,73,33,30.11,30.00,3,0,0,0.00
2013-9-28,84.6,65.4,52.2,59.7,55.3,51.4,99,73,41,30.08,29.96,5,1,0,0.00
2013-9-29,64.4,62.7,60.8,63.6,60.4,56.5,99,93,77,29.97,29.91,3,1,0,0.78
2013-9-30,70.3,64.3,60.4,66.7,62.9,60.1,99,95,86,29.96,29.86,3,1,0,0.02
2013-10-1,78.6,65.7,57.4,68.3,62.5,57.1,99,90,63,30.00,29.92,4,1,0,0.00
2013-10-2,78.4,69.3,62.6,71.0,67.0,62.3,99,93,75,30.03,29.95,3,0,0,0.00
2013-10-3,72.5,66.9,65.3,71.1,66.5,65.0,99,99,94,30.00,29.94,3,0,0,0.00
2013-10-4,84.9,75.4,69.1,73.5,70.8,68.8,99,87,68,30.00,29.93,4,1,0,0.09
2013-10-5,74.3,69.2,64.6,72.4,68.7,64.3,99,98,93,29.97,29.83,4,1,0,0.90
2013-10-6,64.9,59.1,46.6,64.6,58.0,43.2,99,96,79,29.81,29.68,6,2,0,2.39
2013-10-7,63.5,52.0,45.5,50.6,46.8,43.3,96,83,62,30.09,29.76,5,2,0,0.00
2013-10-8,75.0,54.3,43.7,54.1,46.7,43.4,99,80,39,30.20,30.09,4,0,0,0.00
2013-10-9,77.9,57.8,42.6,54.0,48.4,42.3,99,75,40,30.19,30.08,4,0,0,0.00
2013-10-10,77.7,59.2,47.1,54.8,49.7,45.9,98,75,40,30.14,30.00,3,0,0,0.00
2013-10-11,81.0,60.9,45.7,56.2,50.2,45.4,99,73,32,30.05,29.95,3,0,0,0.00
2013-10-12,80.8,63.3,49.3,60.0,55.1,49.0,99,78,45,30.05,29.96,5,0,0,0.00
2013-10-13,75.9,64.0,53.4,61.2,50.0,42.2,88,63,33,30.27,30.05,3,1,0,0.00
2013-10-14,73.6,57.2,43.3,48.9,44.7,41.4,95,66,35,30.29,30.11,3,0,0,0.00
2013-10-15,68.0,58.8,49.8,63.3,55.9,44.9,99,90,77,30.11,29.84,5,1,0,0.02
2013-10-16,64.4,57.6,44.2,63.2,53.6,42.3,99,87,59,29.91,29.80,5,2,0,0.24
2013-10-17,53.2,47.5,42.1,49.5,45.4,41.8,99,93,81,29.90,29.82,5,1,0,0.16
2013-10-18,66.6,51.0,40.3,49.9,44.5,40.0,99,82,47,29.94,29.84,6,2,0,0.00
2013-10-19,54.1,45.5,40.3,46.1,40.5,36.2,99,84,56,29.92,29.81,4,1,0,0.36
2013-10-20,66.0,49.8,38.8,44.7,40.0,35.6,90,71,44,29.94,29.87,8,2,0,0.00
2013-10-21,61.7,50.7,42.4,48.5,43.2,31.3,91,76,58,29.95,29.84,6,2,0,0.00
2013-10-22,54.5,41.8,30.0,40.0,31.6,27.0,94,70,37,29.99,29.74,3,1,0,0.00
2013-10-23,48.7,40.9,36.0,42.1,35.8,28.7,99,84,51,29.99,29.69,5,2,0,0.18
2013-10-24,41.4,37.6,32.0,36.6,32.8,27.7,90,83,76,30.22,29.98,4,2,0,0.00
2013-10-25,52.0,37.8,28.2,31.3,26.4,23.6,89,67,34,30.39,30.19,4,1,0,0.00
2013-10-26,57.0,43.9,32.7,41.1,32.6,26.0,77,65,54,30.20,29.85,7,3,0,0.00
2013-10-27,59.5,43.5,30.7,37.3,33.1,30.0,99,70,36,30.05,29.97,4,1,0,0.05
2013-10-28,65.7,51.9,32.9,38.7,35.2,32.7,99,56,32,30.23,30.13,2,0,0,0.00
2013-10-29,56.5,46.8,35.6,47.3,40.3,32.6,93,79,67,30.29,30.11,1,0,0,0.03
2013-10-30,63.7,56.8,48.6,62.5,56.3,47.5,99,98,94,30.12,29.88,3,0,0,0.28
2013-10-31,66.0,61.7,56.5,64.2,60.5,56.2,99,96,87,29.89,29.22,7,3,0,1.65
2013-11-1,62.2,52.3,46.0,56.1,46.8,41.7,99,83,59,29.70,29.33,8,3,0,0.01
2013-11-2,58.3,47.6,40.6,44.5,40.1,34.4,99,77,48,30.04,29.69,8,2,0,0.00
2013-11-3,70.7,45.2,34.3,51.1,35.7,32.6,99,74,34,30.26,30.04,4,0,0,0.17
2013-11-4,54.9,46.4,36.9,43.2,39.0,33.7,89,76,59,30.28,30.18,6,1,0,0.00
2013-11-5,61.0,52.3,47.5,48.4,44.7,41.0,92,76,59,30.32,30.09,5,1,0,0.01
2013-11-6,59.7,53.6,41.2,55.9,48.5,40.1,99,84,61,30.07,29.86,11,5,0,0.51
2013-11-7,51.8,40.7,31.5,40.4,31.5,24.9,98,74,35,30.23,30.04,8,4,0,0.00
2013-11-8,58.3,44.8,28.8,31.7,29.1,26.2,97,57,33,30.30,30.13,5,2,0,0.00
2013-11-9,62.1,50.1,39.4,41.4,35.4,26.9,72,57,45,30.12,29.94,11,5,0,0.00
2013-11-10,54.9,43.1,31.3,37.8,31.4,27.5,89,65,41,30.29,30.06,9,3,0,0.00
2013-11-11,51.8,40.7,30.4,42.1,34.3,27.2,94,79,50,30.27,30.02,10,3,0,0.08
2013-11-12,42.3,30.9,24.4,30.2,22.3,19.0,97,71,42,30.59,30.29,8,4,0,0.01
2013-11-13,42.1,28.8,18.9,21.5,17.7,14.3,94,67,33,30.58,30.29,8,3,0,0.00
2013-11-14,56.3,39.6,26.6,23.1,19.4,14.7,72,48,20,30.29,30.04,10,4,0,0.00
2013-11-15,53.1,44.0,36.9,38.2,27.2,19.6,89,53,39,30.07,29.98,6,3,0,0.00
2013-11-16,59.4,51.7,41.7,58.8,49.5,38.7,99,92,80,30.01,29.69,12,5,0,0.06
2013-11-17,66.9,59.1,49.5,63.5,55.1,40.3,99,87,60,29.74,29.33,16,7,0,1.47
2013-11-18,51.1,44.4,32.9,41.4,33.6,24.7,82,67,43,30.16,29.75,12,6,0,0.00
2013-11-19,49.1,34.8,26.6,31.7,27.4,24.1,92,76,49,30.30,30.17,6,2,0,0.00
2013-11-20,54.5,37.9,25.5,35.7,29.7,23.5,93,74,49,30.25,30.10,6,2,0,0.00
2013-11-21,54.5,47.2,41.5,48.8,43.2,34.1,97,87,67,30.21,30.08,7,2,0,0.24
2013-11-22,51.6,44.9,34.0,51.3,42.8,31.1,99,93,83,30.36,30.10,11,4,0,0.07
2013-11-23,33.6,27.3,19.6,30.7,20.5,11.4,95,76,54,30.53,30.34,12,6,0,0.00
2013-11-24,32.5,21.0,12.9,13.9,10.6,8.2,82,65,37,30.65,30.44,8,3,0,0.00
2013-11-25,33.4,27.5,17.2,21.8,15.9,11.1,78,62,46,30.45,30.09,9,4,0,0.00
2013-11-26,36.7,32.9,30.2,27.4,25.5,22.0,83,74,64,30.14,29.88,9,3,0,0.00
2013-11-27,30.0,23.3,18.7,24.6,15.3,10.6,80,71,54,30.22,29.93,11,6,0,0.00
2013-11-28,38.1,26.2,16.3,18.2,14.4,10.2,78,62,40,30.38,30.16,12,4,0,0.00
2013-11-29,46.2,29.5,16.5,24.5,19.3,13.7,95,68,39,30.56,30.38,7,1,0,0.00
2013-11-30,53.2,37.3,23.7,30.7,24.0,19.0,84,61,35,30.42,30.07,9,2,0,0.00
2013-12-1,55.6,43.2,34.9,38.1,31.7,24.3,85,65,51,30.07,29.90,6,2,0,0.00
2013-12-2,52.5,41.5,33.3,40.3,35.4,30.2,90,79,62,29.89,29.67,4,0,0,0.00
2013-12-3,50.0,42.4,34.2,47.8,41.4,33.9,99,96,91,29.75,29.68,8,1,0,0.00
2013-12-4,60.4,52.6,43.0,58.1,51.8,42.5,99,97,90,29.74,29.55,10,3,0,0.00
2013-12-5,62.4,38.6,23.9,58.3,35.4,22.7,95,89,82,30.14,29.65,11,5,0,0.03
2013-12-6,28.4,24.7,23.0,24.3,22.5,19.9,95,91,83,30.36,30.12,6,3,0,0.00
2013-12-7,34.2,18.3,8.4,19.4,12.2,6.8,94,79,47,30.57,30.36,8,2,0,0.05
2013-12-8,31.3,24.4,14.2,28.6,20.3,11.3,99,85,72,30.46,29.91,5,2,0,0.00
2013-12-9,32.2,26.2,20.7,29.0,21.1,13.4,98,81,62,30.17,29.92,9,5,0,0.00
2013-12-10,27.3,19.8,11.8,16.4,12.5,8.7,88,74,51,30.26,30.08,11,4,0,0.01
2013-12-11,34.3,18.6,9.5,22.3,12.4,4.8,88,77,60,30.48,30.22,14,4,0,0.00
2013-12-12,28.2,13.1,-0.6,4.3,-0.3,-5.0,83,57,30,30.50,30.24,7,3,0,0.00
2013-12-13,39.9,26.4,13.6,31.0,17.2,1.9,97,69,49,30.25,30.03,7,2,0,0.04
2013-12-14,38.8,32.7,27.3,35.6,31.6,25.2,99,96,88,30.04,29.65,12,3,0,0.73
2013-12-15,28.2,24.4,21.6,26.2,19.0,13.7,94,80,65,30.04,29.86,9,6,0,0.00
2013-12-16,32.5,26.4,22.1,26.1,23.1,19.1,98,87,76,30.04,29.92,4,1,0,0.00
2013-12-17,29.7,26.3,23.5,26.9,23.4,21.0,99,89,77,30.09,29.93,10,5,0,0.00
2013-12-18,40.5,29.0,18.0,22.4,17.6,13.0,89,64,38,30.19,29.92,9,4,0,0.04
2013-12-19,50.2,44.4,34.2,43.3,34.7,20.6,77,69,57,29.96,29.80,7,4,0,0.27
2013-12-20,60.1,55.3,48.2,58.6,51.2,42.2,98,86,75,29.81,29.66,9,6,0,0.89
2013-12-21,52.7,45.6,40.6,51.9,45.2,40.1,99,99,97,29.73,29.38,8,2,0,5.81
2013-12-22,59.0,41.0,32.2,58.4,39.2,29.3,99,93,87,30.01,29.28,15,7,0,0.09
2013-12-23,32.0,26.2,18.0,29.4,21.4,10.8,90,82,73,30.34,30.02,10,5,0,0.00
2013-12-24,23.9,14.6,7.5,10.9,6.9,1.5,80,71,57,30.51,30.34,7,4,0,0.00
2013-12-25,30.2,24.7,18.5,22.9,16.2,11.0,76,70,62,30.39,30.11,10,5,0,0.00
2013-12-26,39.9,32.0,24.3,26.1,22.9,18.4,82,69,53,30.31,30.10,8,4,0,0.00
2013-12-27,48.6,36.9,28.4,33.4,27.1,21.5,75,68,54,30.33,30.18,7,4,0,0.00
2013-12-28,54.9,41.1,32.5,36.2,30.5,27.6,82,67,45,30.18,29.89,8,4,0,0.00
2013-12-29,46.0,36.3,27.3,34.4,30.0,25.2,96,79,63,30.02,29.74,9,4,0,0.00
2013-12-30,27.3,22.4,19.0,25.1,14.2,10.6,93,71,54,30.22,30.02,9,4,0,0.00
2013-12-31,34.7,26.7,20.5,21.1,16.4,11.9,73,65,51,30.29,30.09,9,4,0,0.00
2014-1-1,46.6,32.2,21.6,31.0,24.1,17.3,88,73,54,30.18,29.92,6,1,0,0.00
2014-1-2,31.1,20.2,7.3,27.6,15.3,-0.4,94,81,69,30.24,29.81,3,0,0,0.00